sensor_id;sensor_type;location;lat;lon;timestamp;pressure;altitude;pressure_sealevel;temperature;humidity
73151;BME280;61354;50.758;6.106;2022-10-16T00:00:39;98791.09;;;12.94;93.70
73151;BME280;61354;50.758;6.106;2022-10-16T00:03:04;98784.28;;;12.91;93.81
73151;BME280;61354;50.758;6.106;2022-10-16T00:05:30;98784.66;;;12.90;93.87
73151;BME280;61354;50.758;6.106;2022-10-16T00:07:56;98778.66;;;12.88;93.65
73151;BME280;61354;50.758;6.106;2022-10-16T00:10:22;98777.03;;;12.83;93.77
73151;BME280;61354;50.758;6.106;2022-10-16T00:12:47;98765.03;;;12.79;94.04
73151;BME280;61354;50.758;6.106;2022-10-16T00:15:13;98768.56;;;12.76;93.71
73151;BME280;61354;50.758;6.106;2022-10-16T00:17:39;98774.53;;;12.75;93.79
73151;BME280;61354;50.758;6.106;2022-10-16T00:20:05;98774.53;;;12.75;93.82
73151;BME280;61354;50.758;6.106;2022-10-16T00:22:30;98776.91;;;12.73;93.32
73151;BME280;61354;50.758;6.106;2022-10-16T00:24:56;98780.47;;;12.69;93.62
73151;BME280;61354;50.758;6.106;2022-10-16T00:27:21;98779.19;;;12.63;93.74
73151;BME280;61354;50.758;6.106;2022-10-16T00:29:51;98769.63;;;12.64;93.40
73151;BME280;61354;50.758;6.106;2022-10-16T00:32:20;98768.03;;;12.63;93.01
73151;BME280;61354;50.758;6.106;2022-10-16T00:34:45;98753.72;;;12.61;93.13
73151;BME280;61354;50.758;6.106;2022-10-16T00:37:11;98758.44;;;12.57;93.26
73151;BME280;61354;50.758;6.106;2022-10-16T00:39:37;98762.38;;;12.56;92.71
73151;BME280;61354;50.758;6.106;2022-10-16T00:42:03;98767.53;;;12.54;93.43
73151;BME280;61354;50.758;6.106;2022-10-16T00:45:01;98767.91;;;12.49;93.41
73151;BME280;61354;50.758;6.106;2022-10-16T00:47:41;98764.66;;;12.47;93.46
73151;BME280;61354;50.758;6.106;2022-10-16T00:52:44;98778.13;;;12.41;93.79
73151;BME280;61354;50.758;6.106;2022-10-16T00:55:11;98778.53;;;12.40;93.81
73151;BME280;61354;50.758;6.106;2022-10-16T00:57:37;98790.03;;;12.38;93.39
73151;BME280;61354;50.758;6.106;2022-10-16T01:00:06;98789.66;;;12.40;92.76
73151;BME280;61354;50.758;6.106;2022-10-16T01:02:32;98800.81;;;12.40;92.99
73151;BME280;61354;50.758;6.106;2022-10-16T01:04:57;98799.56;;;12.37;92.53
73151;BME280;61354;50.758;6.106;2022-10-16T01:07:47;98789.66;;;12.40;92.23
73151;BME280;61354;50.758;6.106;2022-10-16T01:10:38;98775.75;;;12.40;92.11
73151;BME280;61354;50.758;6.106;2022-10-16T01:13:08;98783.28;;;12.39;92.01
73151;BME280;61354;50.758;6.106;2022-10-16T01:18:18;98792.47;;;12.43;91.07
73151;BME280;61354;50.758;6.106;2022-10-16T01:20:58;98798.81;;;12.40;91.15
73151;BME280;61354;50.758;6.106;2022-10-16T01:28:41;98795.25;;;12.40;90.90
73151;BME280;61354;50.758;6.106;2022-10-16T01:31:09;98796.44;;;12.42;90.49
73151;BME280;61354;50.758;6.106;2022-10-16T01:33:40;98801.22;;;12.42;90.20
73151;BME280;61354;50.758;6.106;2022-10-16T01:36:13;98805.59;;;12.43;90.07
73151;BME280;61354;50.758;6.106;2022-10-16T01:38:41;98803.66;;;12.47;90.32
73151;BME280;61354;50.758;6.106;2022-10-16T01:41:10;98803.31;;;12.49;90.31
73151;BME280;61354;50.758;6.106;2022-10-16T01:43:42;98812.84;;;12.51;89.68
73151;BME280;61354;50.758;6.106;2022-10-16T01:46:10;98804.56;;;12.55;89.49
73151;BME280;61354;50.758;6.106;2022-10-16T01:48:38;98813.28;;;12.53;90.26
73151;BME280;61354;50.758;6.106;2022-10-16T01:51:08;98813.28;;;12.53;90.26
73151;BME280;61354;50.758;6.106;2022-10-16T01:53:36;98810.50;;;12.53;90.20
73151;BME280;61354;50.758;6.106;2022-10-16T01:56:04;98813.28;;;12.53;90.20
73151;BME280;61354;50.758;6.106;2022-10-16T01:58:35;98816.50;;;12.55;90.28
73151;BME280;61354;50.758;6.106;2022-10-16T02:01:03;98813.72;;;12.55;90.82
73151;BME280;61354;50.758;6.106;2022-10-16T02:03:31;98811.75;;;12.59;90.32
73151;BME280;61354;50.758;6.106;2022-10-16T02:05:58;98829.28;;;12.60;90.97
73151;BME280;61354;50.758;6.106;2022-10-16T02:08:25;98819.38;;;12.62;91.02
73151;BME280;61354;50.758;6.106;2022-10-16T02:10:55;98822.56;;;12.64;91.06
73151;BME280;61354;50.758;6.106;2022-10-16T02:15:52;98826.19;;;12.65;91.15
73151;BME280;61354;50.758;6.106;2022-10-16T02:18:18;98830.13;;;12.64;91.41
73151;BME280;61354;50.758;6.106;2022-10-16T02:21:18;98825.34;;;12.61;91.93
73151;BME280;61354;50.758;6.106;2022-10-16T02:23:57;98823.72;;;12.60;92.21
73151;BME280;61354;50.758;6.106;2022-10-16T02:29:28;98823.66;;;12.56;92.39
73151;BME280;61354;50.758;6.106;2022-10-16T02:31:58;98823.25;;;12.54;92.47
73151;BME280;61354;50.758;6.106;2022-10-16T02:34:25;98829.22;;;12.53;92.85
73151;BME280;61354;50.758;6.106;2022-10-16T02:36:52;98828.38;;;12.52;93.12
73151;BME280;61354;50.758;6.106;2022-10-16T02:39:19;98824.78;;;12.52;93.27
73151;BME280;61354;50.758;6.106;2022-10-16T02:41:45;98821.22;;;12.51;93.69
73151;BME280;61354;50.758;6.106;2022-10-16T02:44:10;98817.25;;;12.52;93.37
73151;BME280;61354;50.758;6.106;2022-10-16T02:46:36;98810.06;;;12.51;93.83
73151;BME280;61354;50.758;6.106;2022-10-16T02:49:01;98807.28;;;12.51;93.97
73151;BME280;61354;50.758;6.106;2022-10-16T02:51:27;98804.50;;;12.51;94.23
73151;BME280;61354;50.758;6.106;2022-10-16T02:53:52;98802.91;;;12.50;94.28
73151;BME280;61354;50.758;6.106;2022-10-16T02:56:17;98806.09;;;12.49;94.42
73151;BME280;61354;50.758;6.106;2022-10-16T02:58:44;98803.66;;;12.47;94.67
73151;BME280;61354;50.758;6.106;2022-10-16T03:01:09;98812.00;;;12.47;94.84
73151;BME280;61354;50.758;6.106;2022-10-16T03:03:34;98812.44;;;12.49;94.84
73151;BME280;61354;50.758;6.106;2022-10-16T03:06:00;98812.41;;;12.46;95.14
73151;BME280;61354;50.758;6.106;2022-10-16T03:08:25;98807.19;;;12.44;95.04
73151;BME280;61354;50.758;6.106;2022-10-16T03:10:51;98796.44;;;12.42;95.41
73151;BME280;61354;50.758;6.106;2022-10-16T03:13:16;98793.59;;;12.39;94.92
73151;BME280;61354;50.758;6.106;2022-10-16T03:15:42;98805.13;;;12.37;95.76
73151;BME280;61354;50.758;6.106;2022-10-16T03:18:07;98806.78;;;12.42;96.04
73151;BME280;61354;50.758;6.106;2022-10-16T03:20:33;98807.59;;;12.42;95.81
73151;BME280;61354;50.758;6.106;2022-10-16T03:22:58;98809.16;;;12.40;95.96
73151;BME280;61354;50.758;6.106;2022-10-16T03:25:24;98813.50;;;12.37;95.91
73151;BME280;61354;50.758;6.106;2022-10-16T03:27:49;98813.91;;;12.39;95.88
73151;BME280;61354;50.758;6.106;2022-10-16T03:30:14;98817.50;;;12.40;95.97
73151;BME280;61354;50.758;6.106;2022-10-16T03:32:41;98839.41;;;12.41;96.09
73151;BME280;61354;50.758;6.106;2022-10-16T03:35:07;98850.94;;;12.40;96.09
73151;BME280;61354;50.758;6.106;2022-10-16T03:37:32;98852.94;;;12.43;96.05
73151;BME280;61354;50.758;6.106;2022-10-16T03:39:58;98851.75;;;12.44;95.98
73151;BME280;61354;50.758;6.106;2022-10-16T03:42:24;98832.63;;;12.42;96.12
73151;BME280;61354;50.758;6.106;2022-10-16T03:44:49;98833.03;;;12.41;95.94
73151;BME280;61354;50.758;6.106;2022-10-16T03:47:15;98835.81;;;12.41;95.83
73151;BME280;61354;50.758;6.106;2022-10-16T03:49:40;98839.78;;;12.40;96.01
73151;BME280;61354;50.758;6.106;2022-10-16T03:52:05;98829.81;;;12.39;96.06
73151;BME280;61354;50.758;6.106;2022-10-16T03:54:31;98833.78;;;12.38;96.28
73151;BME280;61354;50.758;6.106;2022-10-16T03:56:56;98836.16;;;12.36;96.40
73151;BME280;61354;50.758;6.106;2022-10-16T03:59:21;98842.06;;;12.34;96.55
73151;BME280;61354;50.758;6.106;2022-10-16T04:01:47;98837.25;;;12.31;96.70
73151;BME280;61354;50.758;6.106;2022-10-16T04:04:12;98838.84;;;12.29;97.05
73151;BME280;61354;50.758;6.106;2022-10-16T04:06:38;98852.75;;;12.29;96.84
73151;BME280;61354;50.758;6.106;2022-10-16T04:09:03;98837.22;;;12.28;96.54
73151;BME280;61354;50.758;6.106;2022-10-16T04:11:29;98834.00;;;12.26;96.85
73151;BME280;61354;50.758;6.106;2022-10-16T04:13:55;98844.72;;;12.24;97.13
73151;BME280;61354;50.758;6.106;2022-10-16T04:16:20;98831.13;;;12.18;97.55
73151;BME280;61354;50.758;6.106;2022-10-16T04:18:46;98833.91;;;12.18;97.28
73151;BME280;61354;50.758;6.106;2022-10-16T04:21:11;98849.81;;;12.18;97.35
73151;BME280;61354;50.758;6.106;2022-10-16T04:23:36;98852.13;;;12.12;97.73
73151;BME280;61354;50.758;6.106;2022-10-16T04:26:02;98863.59;;;12.11;97.76
73151;BME280;61354;50.758;6.106;2022-10-16T04:28:27;98859.63;;;12.08;98.18
73151;BME280;61354;50.758;6.106;2022-10-16T04:30:53;98873.53;;;12.08;98.05
73151;BME280;61354;50.758;6.106;2022-10-16T04:33:18;98876.72;;;12.10;98.06
73151;BME280;61354;50.758;6.106;2022-10-16T04:35:44;98871.53;;;12.09;98.08
73151;BME280;61354;50.758;6.106;2022-10-16T04:38:09;98870.31;;;12.06;98.17
73151;BME280;61354;50.758;6.106;2022-10-16T04:40:35;98871.47;;;12.05;98.21
73151;BME280;61354;50.758;6.106;2022-10-16T04:43:03;98870.69;;;12.05;98.26
73151;BME280;61354;50.758;6.106;2022-10-16T04:45:29;98884.22;;;12.06;98.17
73151;BME280;61354;50.758;6.106;2022-10-16T04:47:58;98888.91;;;12.02;98.21
73151;BME280;61354;50.758;6.106;2022-10-16T04:50:24;98886.47;;;11.97;98.33
73151;BME280;61354;50.758;6.106;2022-10-16T04:52:49;98894.47;;;11.99;98.62
73151;BME280;61354;50.758;6.106;2022-10-16T04:55:15;98902.41;;;12.00;98.23
73151;BME280;61354;50.758;6.106;2022-10-16T04:57:40;98904.03;;;12.01;98.58
73151;BME280;61354;50.758;6.106;2022-10-16T05:00:06;98913.94;;;11.99;98.55
73151;BME280;61354;50.758;6.106;2022-10-16T05:02:33;98898.47;;;12.01;98.38
73151;BME280;61354;50.758;6.106;2022-10-16T05:04:58;98898.03;;;11.99;98.29
73151;BME280;61354;50.758;6.106;2022-10-16T05:07:24;98911.50;;;11.97;98.60
73151;BME280;61354;50.758;6.106;2022-10-16T05:09:49;98907.53;;;11.98;98.55
73151;BME280;61354;50.758;6.106;2022-10-16T05:12:15;98913.56;;;12.00;98.50
73151;BME280;61354;50.758;6.106;2022-10-16T05:14:40;98915.09;;;11.98;98.81
73151;BME280;61354;50.758;6.106;2022-10-16T05:17:05;98924.25;;;11.98;98.80
73151;BME280;61354;50.758;6.106;2022-10-16T05:19:31;98913.09;;;11.98;98.45
73151;BME280;61354;50.758;6.106;2022-10-16T05:21:56;98913.09;;;11.98;98.86
73151;BME280;61354;50.758;6.106;2022-10-16T05:24:22;98924.63;;;11.97;98.90
73151;BME280;61354;50.758;6.106;2022-10-16T05:26:47;98924.69;;;12.00;98.54
73151;BME280;61354;50.758;6.106;2022-10-16T05:29:12;98915.16;;;12.01;98.44
73151;BME280;61354;50.758;6.106;2022-10-16T05:31:38;98933.03;;;12.00;98.55
73151;BME280;61354;50.758;6.106;2022-10-16T05:34:03;98939.78;;;11.99;98.53
73151;BME280;61354;50.758;6.106;2022-10-16T05:36:28;98944.47;;;11.95;98.80
73151;BME280;61354;50.758;6.106;2022-10-16T05:38:54;98941.69;;;11.95;98.81
73151;BME280;61354;50.758;6.106;2022-10-16T05:41:19;98946.03;;;11.92;98.67
73151;BME280;61354;50.758;6.106;2022-10-16T05:43:47;98943.69;;;11.94;98.71
73151;BME280;61354;50.758;6.106;2022-10-16T05:46:13;98955.09;;;11.89;98.98
73151;BME280;61354;50.758;6.106;2022-10-16T05:48:39;98961.13;;;11.91;99.09
73151;BME280;61354;50.758;6.106;2022-10-16T05:51:06;98965.56;;;11.96;98.85
73151;BME280;61354;50.758;6.106;2022-10-16T05:53:33;98977.88;;;11.95;99.06
73151;BME280;61354;50.758;6.106;2022-10-16T05:55:59;98972.00;;;12.00;98.59
73151;BME280;61354;50.758;6.106;2022-10-16T05:58:28;98972.00;;;12.00;98.80
73151;BME280;61354;50.758;6.106;2022-10-16T06:00:58;98968.41;;;12.00;98.69
73151;BME280;61354;50.758;6.106;2022-10-16T06:03:24;98974.38;;;12.02;98.71
73151;BME280;61354;50.758;6.106;2022-10-16T06:05:50;98984.38;;;12.03;98.71
73151;BME280;61354;50.758;6.106;2022-10-16T06:08:15;98987.50;;;12.01;98.77
73151;BME280;61354;50.758;6.106;2022-10-16T06:10:41;98991.88;;;12.02;98.59
73151;BME280;61354;50.758;6.106;2022-10-16T06:13:06;99000.25;;;12.02;98.88
73151;BME280;61354;50.758;6.106;2022-10-16T06:15:32;99002.28;;;12.05;98.59
73151;BME280;61354;50.758;6.106;2022-10-16T06:17:57;99003.88;;;12.06;98.73
73151;BME280;61354;50.758;6.106;2022-10-16T06:20:22;99006.00;;;12.13;98.82
73151;BME280;61354;50.758;6.106;2022-10-16T06:22:48;99005.28;;;12.16;98.39
73151;BME280;61354;50.758;6.106;2022-10-16T06:25:13;99010.06;;;12.19;98.03
73151;BME280;61354;50.758;6.106;2022-10-16T06:27:41;99013.38;;;12.25;97.99
73151;BME280;61354;50.758;6.106;2022-10-16T06:30:07;99009.78;;;12.24;97.93
73151;BME280;61354;50.758;6.106;2022-10-16T06:32:33;99018.13;;;12.24;97.81
73151;BME280;61354;50.758;6.106;2022-10-16T06:34:58;99018.19;;;12.28;97.94
73151;BME280;61354;50.758;6.106;2022-10-16T06:37:23;99025.31;;;12.25;97.97
73151;BME280;61354;50.758;6.106;2022-10-16T06:39:50;99022.13;;;12.27;97.88
73151;BME280;61354;50.758;6.106;2022-10-16T06:42:17;99026.97;;;12.30;97.91
73151;BME280;61354;50.758;6.106;2022-10-16T06:44:43;99021.41;;;12.30;97.70
73151;BME280;61354;50.758;6.106;2022-10-16T06:47:08;99021.41;;;12.30;97.77
73151;BME280;61354;50.758;6.106;2022-10-16T06:49:34;99032.97;;;12.32;97.83
73151;BME280;61354;50.758;6.106;2022-10-16T06:51:59;99031.00;;;12.32;97.82
73151;BME280;61354;50.758;6.106;2022-10-16T06:54:25;99031.78;;;12.33;97.59
73151;BME280;61354;50.758;6.106;2022-10-16T06:56:51;99027.41;;;12.32;97.89
73151;BME280;61354;50.758;6.106;2022-10-16T06:59:16;99043.75;;;12.33;97.87
73151;BME280;61354;50.758;6.106;2022-10-16T07:01:41;99046.13;;;12.35;97.79
73151;BME280;61354;50.758;6.106;2022-10-16T07:04:07;99050.97;;;12.38;97.93
73151;BME280;61354;50.758;6.106;2022-10-16T07:06:33;99059.31;;;12.38;97.75
73151;BME280;61354;50.758;6.106;2022-10-16T07:09:02;99060.50;;;12.37;97.96
73151;BME280;61354;50.758;6.106;2022-10-16T07:11:27;99066.06;;;12.37;97.85
73151;BME280;61354;50.758;6.106;2022-10-16T07:13:53;99072.84;;;12.36;97.81
73151;BME280;61354;50.758;6.106;2022-10-16T07:16:20;99077.22;;;12.37;97.79
73151;BME280;61354;50.758;6.106;2022-10-16T07:18:46;99078.81;;;12.38;97.84
73151;BME280;61354;50.758;6.106;2022-10-16T07:21:15;99083.59;;;12.37;97.79
73151;BME280;61354;50.758;6.106;2022-10-16T07:23:42;99089.97;;;12.38;98.10
73151;BME280;61354;50.758;6.106;2022-10-16T07:26:09;99091.50;;;12.35;98.32
73151;BME280;61354;50.758;6.106;2022-10-16T07:28:35;99101.97;;;12.42;98.11
73151;BME280;61354;50.758;6.106;2022-10-16T07:31:02;99101.28;;;12.49;97.83
73151;BME280;61354;50.758;6.106;2022-10-16T07:33:28;99107.66;;;12.49;97.78
73151;BME280;61354;50.758;6.106;2022-10-16T07:35:54;99116.88;;;12.53;97.94
73151;BME280;61354;50.758;6.106;2022-10-16T07:38:21;99112.19;;;12.57;97.61
73151;BME280;61354;50.758;6.106;2022-10-16T07:40:47;99112.72;;;12.66;97.49
73151;BME280;61354;50.758;6.106;2022-10-16T07:43:12;99116.38;;;12.71;97.20
73151;BME280;61354;50.758;6.106;2022-10-16T07:45:49;99120.16;;;12.82;96.92
73151;BME280;61354;50.758;6.106;2022-10-16T07:48:15;99129.06;;;12.91;96.14
73151;BME280;61354;50.758;6.106;2022-10-16T07:50:40;99131.97;;;12.98;95.65
73151;BME280;61354;50.758;6.106;2022-10-16T07:53:06;99123.59;;;12.98;95.91
73151;BME280;61354;50.758;6.106;2022-10-16T07:55:32;99128.91;;;13.07;95.38
73151;BME280;61354;50.758;6.106;2022-10-16T07:57:57;99132.97;;;13.13;95.05
73151;BME280;61354;50.758;6.106;2022-10-16T08:00:22;99131.03;;;13.17;94.66
73151;BME280;61354;50.758;6.106;2022-10-16T08:02:48;99139.16;;;13.26;93.99
73151;BME280;61354;50.758;6.106;2022-10-16T08:05:13;99142.47;;;13.35;93.64
73151;BME280;61354;50.758;6.106;2022-10-16T08:07:39;99152.09;;;13.37;93.62
73151;BME280;61354;50.758;6.106;2022-10-16T08:10:04;99152.94;;;13.41;93.24
73151;BME280;61354;50.758;6.106;2022-10-16T08:12:30;99156.66;;;13.49;92.73
73151;BME280;61354;50.758;6.106;2022-10-16T08:14:55;99171.44;;;13.53;92.57
73151;BME280;61354;50.758;6.106;2022-10-16T08:17:21;99170.69;;;13.56;92.48
73151;BME280;61354;50.758;6.106;2022-10-16T08:19:47;99168.75;;;13.60;91.87
73151;BME280;61354;50.758;6.106;2022-10-16T08:22:14;99176.06;;;13.68;91.53
73151;BME280;61354;50.758;6.106;2022-10-16T08:24:40;99169.28;;;13.70;91.16
73151;BME280;61354;50.758;6.106;2022-10-16T08:27:07;99165.81;;;13.80;90.08
73151;BME280;61354;50.758;6.106;2022-10-16T08:29:34;99181.44;;;13.84;90.17
73151;BME280;61354;50.758;6.106;2022-10-16T08:31:59;99180.72;;;13.91;90.04
73151;BME280;61354;50.758;6.106;2022-10-16T08:34:25;99185.22;;;13.99;89.86
73151;BME280;61354;50.758;6.106;2022-10-16T08:36:53;99189.31;;;14.09;87.62
73151;BME280;61354;50.758;6.106;2022-10-16T08:39:19;99192.59;;;14.14;87.68
73151;BME280;61354;50.758;6.106;2022-10-16T08:50:09;99206.31;;;14.30;86.78
73151;BME280;61354;50.758;6.106;2022-10-16T08:52:41;99204.34;;;14.31;85.92
73151;BME280;61354;50.758;6.106;2022-10-16T08:55:26;99209.25;;;14.41;84.83
73151;BME280;61354;50.758;6.106;2022-10-16T08:57:53;99205.25;;;14.42;85.30
73151;BME280;61354;50.758;6.106;2022-10-16T09:00:19;99197.44;;;14.55;84.49
73151;BME280;61354;50.758;6.106;2022-10-16T09:03:48;99201.84;;;14.52;85.60
73151;BME280;61354;50.758;6.106;2022-10-16T09:14:06;99208.81;;;14.73;82.58
73151;BME280;61354;50.758;6.106;2022-10-16T09:16:46;99218.06;;;14.77;82.98
73151;BME280;61354;50.758;6.106;2022-10-16T09:19:29;99212.91;;;14.82;81.55
73151;BME280;61354;50.758;6.106;2022-10-16T09:21:59;99215.31;;;14.84;81.99
73151;BME280;61354;50.758;6.106;2022-10-16T09:24:27;99218.56;;;14.89;80.80
73151;BME280;61354;50.758;6.106;2022-10-16T09:26:53;99223.41;;;14.96;81.07
73151;BME280;61354;50.758;6.106;2022-10-16T09:29:20;99222.56;;;14.92;81.84
73151;BME280;61354;50.758;6.106;2022-10-16T09:31:47;99221.81;;;14.95;81.78
73151;BME280;61354;50.758;6.106;2022-10-16T09:34:26;99224.66;;;14.99;81.06
73151;BME280;61354;50.758;6.106;2022-10-16T09:36:56;99224.25;;;15.00;81.43
73151;BME280;61354;50.758;6.106;2022-10-16T09:39:22;99217.91;;;15.03;81.29
73151;BME280;61354;50.758;6.106;2022-10-16T09:41:48;99214.38;;;15.13;79.75
73151;BME280;61354;50.758;6.106;2022-10-16T09:44:22;99213.25;;;15.22;79.22
73151;BME280;61354;50.758;6.106;2022-10-16T09:46:48;99215.28;;;15.25;79.07
73151;BME280;61354;50.758;6.106;2022-10-16T09:49:25;99220.50;;;15.30;79.08
73151;BME280;61354;50.758;6.106;2022-10-16T09:52:02;99220.50;;;15.30;79.00
73151;BME280;61354;50.758;6.106;2022-10-16T09:54:28;99224.16;;;15.37;79.47
73151;BME280;61354;50.758;6.106;2022-10-16T09:57:04;99209.53;;;15.62;77.23
73151;BME280;61354;50.758;6.106;2022-10-16T09:59:31;99212.75;;;15.60;76.92
73151;BME280;61354;50.758;6.106;2022-10-16T10:02:01;99207.16;;;15.60;75.84
73151;BME280;61354;50.758;6.106;2022-10-16T10:04:38;99216.75;;;15.59;75.09
73151;BME280;61354;50.758;6.106;2022-10-16T10:07:04;99219.13;;;15.61;75.77
73151;BME280;61354;50.758;6.106;2022-10-16T10:09:37;99219.22;;;15.72;76.20
73151;BME280;61354;50.758;6.106;2022-10-16T10:12:18;99210.81;;;15.64;75.44
73151;BME280;61354;50.758;6.106;2022-10-16T10:14:49;99219.19;;;15.64;76.68
73151;BME280;61354;50.758;6.106;2022-10-16T10:17:25;99227.22;;;15.70;75.63
73151;BME280;61354;50.758;6.106;2022-10-16T10:20:18;99234.78;;;15.65;76.94
73151;BME280;61354;50.758;6.106;2022-10-16T10:22:46;99238.31;;;15.55;77.07
73151;BME280;61354;50.758;6.106;2022-10-16T10:30:41;99235.78;;;15.39;77.74
73151;BME280;61354;50.758;6.106;2022-10-16T10:34:04;99227.41;;;15.43;77.99
73151;BME280;61354;50.758;6.106;2022-10-16T10:38:51;99241.47;;;15.54;77.25
73151;BME280;61354;50.758;6.106;2022-10-16T10:44:00;99242.25;;;15.47;78.14
73151;BME280;61354;50.758;6.106;2022-10-16T10:46:47;99248.19;;;15.42;78.62
73151;BME280;61354;50.758;6.106;2022-10-16T10:55:23;99258.28;;;15.54;78.10
73151;BME280;61354;50.758;6.106;2022-10-16T11:05:45;99251.97;;;15.64;75.72
73151;BME280;61354;50.758;6.106;2022-10-16T11:08:25;99255.22;;;15.70;75.92
73151;BME280;61354;50.758;6.106;2022-10-16T11:11:08;99251.31;;;15.85;75.62
73151;BME280;61354;50.758;6.106;2022-10-16T11:19:22;99257.31;;;15.87;74.14
73151;BME280;61354;50.758;6.106;2022-10-16T11:21:56;99243.72;;;15.85;75.88
73151;BME280;61354;50.758;6.106;2022-10-16T11:30:00;99243.44;;;16.01;75.57
73151;BME280;61354;50.758;6.106;2022-10-16T11:41:37;99257.91;;;16.21;74.39
73151;BME280;61354;50.758;6.106;2022-10-16T11:46:31;99266.81;;;16.41;74.32
73151;BME280;61354;50.758;6.106;2022-10-16T11:49:12;99266.84;;;16.48;73.90
73151;BME280;61354;50.758;6.106;2022-10-16T11:51:43;99258.00;;;16.46;72.22
73151;BME280;61354;50.758;6.106;2022-10-16T11:54:32;99253.66;;;16.52;73.29
73151;BME280;61354;50.758;6.106;2022-10-16T11:57:09;99246.84;;;16.53;74.66
73151;BME280;61354;50.758;6.106;2022-10-16T11:59:50;99254.88;;;16.55;72.05
73151;BME280;61354;50.758;6.106;2022-10-16T12:05:06;99258.88;;;16.61;74.83
73151;BME280;61354;50.758;6.106;2022-10-16T12:07:39;99260.50;;;16.65;73.42
73151;BME280;61354;50.758;6.106;2022-10-16T12:10:27;99251.31;;;16.72;74.05
73151;BME280;61354;50.758;6.106;2022-10-16T12:12:54;99253.31;;;16.75;72.15
73151;BME280;61354;50.758;6.106;2022-10-16T12:15:28;99242.94;;;16.79;73.50
73151;BME280;61354;50.758;6.106;2022-10-16T12:17:55;99252.56;;;16.82;72.38
73151;BME280;61354;50.758;6.106;2022-10-16T12:22:54;99254.19;;;16.94;72.77
73151;BME280;61354;50.758;6.106;2022-10-16T12:25:28;99244.56;;;16.95;72.05
73151;BME280;61354;50.758;6.106;2022-10-16T12:28:00;99247.00;;;16.96;72.92
73151;BME280;61354;50.758;6.106;2022-10-16T12:30:29;99251.78;;;16.96;71.98
73151;BME280;61354;50.758;6.106;2022-10-16T12:33:02;99248.59;;;16.97;72.41
73151;BME280;61354;50.758;6.106;2022-10-16T12:35:33;99253.41;;;16.97;71.34
73151;BME280;61354;50.758;6.106;2022-10-16T12:38:19;99241.38;;;16.93;67.41
73151;BME280;61354;50.758;6.106;2022-10-16T12:40:58;99249.78;;;17.03;69.08
73151;BME280;61354;50.758;6.106;2022-10-16T12:46:24;99236.94;;;16.95;69.64
73151;BME280;61354;50.758;6.106;2022-10-16T12:48:48;99237.34;;;16.90;71.67
73151;BME280;61354;50.758;6.106;2022-10-16T12:54:13;99237.34;;;16.94;71.28
73151;BME280;61354;50.758;6.106;2022-10-16T13:16:05;99236.59;;;17.25;70.57
73151;BME280;61354;50.758;6.106;2022-10-16T13:18:42;99235.78;;;17.28;71.09
73151;BME280;61354;50.758;6.106;2022-10-16T13:26:44;99236.56;;;17.36;70.92
73151;BME280;61354;50.758;6.106;2022-10-16T13:29:12;99234.16;;;17.45;70.94
73151;BME280;61354;50.758;6.106;2022-10-16T13:31:39;99236.59;;;17.50;72.37
73151;BME280;61354;50.758;6.106;2022-10-16T13:34:05;99234.16;;;17.59;71.38
73151;BME280;61354;50.758;6.106;2022-10-16T13:36:44;99235.75;;;17.68;72.38
73151;BME280;61354;50.758;6.106;2022-10-16T13:39:16;99241.78;;;17.80;71.57
73151;BME280;61354;50.758;6.106;2022-10-16T13:41:46;99240.56;;;17.88;71.50
73151;BME280;61354;50.758;6.106;2022-10-16T13:44:22;99253.41;;;17.86;71.11
73151;BME280;61354;50.758;6.106;2022-10-16T13:47:00;99242.97;;;17.83;70.04
73151;BME280;61354;50.758;6.106;2022-10-16T13:49:26;99249.00;;;17.78;71.14
73151;BME280;61354;50.758;6.106;2022-10-16T13:51:59;99247.38;;;17.66;71.28
73151;BME280;61354;50.758;6.106;2022-10-16T13:54:26;99242.19;;;17.57;72.25
73151;BME280;61354;50.758;6.106;2022-10-16T13:56:54;99246.59;;;17.55;72.93
73151;BME280;61354;50.758;6.106;2022-10-16T13:59:32;99246.19;;;17.49;72.98
73151;BME280;61354;50.758;6.106;2022-10-16T14:01:58;99250.22;;;17.45;73.56
73151;BME280;61354;50.758;6.106;2022-10-16T14:04:28;99253.44;;;17.39;72.98
73151;BME280;61354;50.758;6.106;2022-10-16T14:06:56;99242.19;;;17.36;74.29
73151;BME280;61354;50.758;6.106;2022-10-16T14:09:31;99240.59;;;17.35;74.10
73151;BME280;61354;50.758;6.106;2022-10-16T14:12:03;99247.41;;;17.34;75.23
73151;BME280;61354;50.758;6.106;2022-10-16T14:14:44;99248.59;;;17.33;75.25
73151;BME280;61354;50.758;6.106;2022-10-16T14:17:15;99253.84;;;17.34;75.36
73151;BME280;61354;50.758;6.106;2022-10-16T14:19:46;99259.03;;;17.36;75.73
73151;BME280;61354;50.758;6.106;2022-10-16T14:22:30;99255.00;;;17.33;75.40
73151;BME280;61354;50.758;6.106;2022-10-16T14:24:56;99261.44;;;17.34;74.75
73151;BME280;61354;50.758;6.106;2022-10-16T14:27:33;99257.44;;;17.31;74.92
73151;BME280;61354;50.758;6.106;2022-10-16T14:32:34;99251.03;;;17.34;75.61
73151;BME280;61354;50.758;6.106;2022-10-16T14:34:59;99256.66;;;17.38;75.86
73151;BME280;61354;50.758;6.106;2022-10-16T14:37:27;99258.63;;;17.37;75.83
73151;BME280;61354;50.758;6.106;2022-10-16T14:39:53;99252.22;;;17.37;75.08
73151;BME280;61354;50.758;6.106;2022-10-16T14:42:21;99250.63;;;17.36;75.80
73151;BME280;61354;50.758;6.106;2022-10-16T14:44:50;99253.84;;;17.38;75.62
73151;BME280;61354;50.758;6.106;2022-10-16T14:47:21;99249.41;;;17.37;75.96
73151;BME280;61354;50.758;6.106;2022-10-16T14:49:50;99249.41;;;17.37;76.15
73151;BME280;61354;50.758;6.106;2022-10-16T14:52:16;99268.66;;;17.35;76.42
73151;BME280;61354;50.758;6.106;2022-10-16T14:54:42;99257.84;;;17.30;76.78
73151;BME280;61354;50.758;6.106;2022-10-16T14:57:19;99251.44;;;17.26;76.68
73151;BME280;61354;50.758;6.106;2022-10-16T14:59:46;99253.81;;;17.20;77.35
73151;BME280;61354;50.758;6.106;2022-10-16T15:02:33;99254.22;;;17.15;77.10
73151;BME280;61354;50.758;6.106;2022-10-16T15:05:25;99247.78;;;17.11;77.61
73151;BME280;61354;50.758;6.106;2022-10-16T15:07:53;99243.78;;;17.08;78.04